Time;durP1;ratioP1;P1;durP2;ratioP2;P2;SDS_P1;SDS_P2;PMS_P1;PMS_P2;Temp;Humidity;BMP_temperature;BMP_pressure;BME280_temperature;BME280_humidity;BME280_pressure;Samples;Min_cycle;Max_cycle;Signal;HPM_P1;HPM_P2
2021/10/18 00:01:40;;;;;;;;;28.25;22.50;;;;;10.32;69.79;101848.47;5034550;28;45537;-71
2021/10/18 00:04:06;;;;;;;;;26.75;22.00;;;;;10.31;69.76;101844.13;5036169;28;45534;-71
2021/10/18 00:06:32;;;;;;;;;26.25;20.25;;;;;10.28;70.06;101838.94;5037807;28;46311;-71
2021/10/18 00:08:58;;;;;;;;;21.75;20.75;;;;;10.17;70.00;101829.50;5036831;28;45316;-71
2021/10/18 00:11:24;;;;;;;;;23.50;20.00;;;;;10.23;70.34;101846.03;5037445;28;45516;-71
2021/10/18 00:13:49;;;;;;;;;25.25;22.25;;;;;10.14;70.43;101850.59;5020037;28;45261;-71
2021/10/18 00:16:15;;;;;;;;;29.00;22.00;;;;;10.12;70.23;101846.28;5037411;28;46162;-71
2021/10/18 00:18:40;;;;;;;;;24.25;20.75;;;;;10.09;70.46;101844.59;5035695;28;45460;-71
2021/10/18 00:21:05;;;;;;;;;21.50;19.50;;;;;10.06;70.56;101842.03;5037435;28;45324;-71
2021/10/18 00:23:31;;;;;;;;;24.00;18.50;;;;;10.02;70.71;101840.38;5036106;28;45435;-71
2021/10/18 00:25:56;;;;;;;;;15.00;12.33;;;;;9.98;70.79;101843.97;5035359;28;54470;-70
2021/10/18 00:28:21;;;;;;;;;26.50;22.25;;;;;9.94;70.71;101834.44;5037170;28;45273;-70
2021/10/18 00:30:48;;;;;;;;;23.25;21.25;;;;;9.97;71.02;101849.25;5037823;28;45327;-71
2021/10/18 00:33:14;;;;;;;;;30.50;22.00;;;;;9.94;70.63;101852.81;5036993;28;45541;-71
2021/10/18 00:35:39;;;;;;;;;27.00;20.75;;;;;9.92;70.80;101858.13;5036889;28;45320;-71
2021/10/18 00:38:04;;;;;;;;;20.00;18.50;;;;;9.91;70.78;101852.88;5036191;28;45509;-71
2021/10/18 00:40:30;;;;;;;;;25.25;20.75;;;;;9.91;70.63;101852.88;5037186;28;45822;-71
2021/10/18 00:42:56;;;;;;;;;24.50;21.00;;;;;9.89;70.92;101855.53;5037016;28;45376;-70
2021/10/18 00:45:21;;;;;;;;;21.00;19.75;;;;;9.81;70.76;101833.84;5036668;28;45502;-71
2021/10/18 00:47:46;;;;;;;;;26.75;21.50;;;;;9.86;71.14;101845.09;5036453;28;45340;-71
2021/10/18 00:50:12;;;;;;;;;24.50;21.25;;;;;9.82;70.91;101840.84;5037150;28;45484;-71
2021/10/18 00:52:39;;;;;;;;;27.25;23.50;;;;;9.84;71.06;101848.69;5036700;28;45454;-71
2021/10/18 00:55:05;;;;;;;;;26.00;21.50;;;;;9.82;70.98;101847.84;5036680;28;45460;-71
2021/10/18 00:57:31;;;;;;;;;26.25;19.75;;;;;9.70;71.06;101838.47;5036296;28;45432;-71
2021/10/18 00:59:58;;;;;;;;;25.50;22.75;;;;;9.77;71.17;101855.81;5036734;28;45763;-71
2021/10/18 01:02:24;;;;;;;;;29.50;21.00;;;;;9.76;70.80;101855.84;5037085;28;45426;-71
2021/10/18 01:04:51;;;;;;;;;28.25;24.75;;;;;9.75;70.98;101854.97;5035838;28;45509;-71
2021/10/18 01:07:16;;;;;;;;;22.50;20.25;;;;;9.73;71.07;101851.53;5036217;28;45962;-71
2021/10/18 01:09:42;;;;;;;;;23.50;18.75;;;;;9.72;71.38;101862.94;5037345;28;45352;-71
2021/10/18 01:12:07;;;;;;;;;26.50;22.00;;;;;9.68;71.53;101861.28;5035923;28;45508;-71
2021/10/18 01:14:33;;;;;;;;;21.00;20.25;;;;;9.66;71.41;101861.31;5036247;28;45441;-70
2021/10/18 01:16:58;;;;;;;;;24.00;21.00;;;;;9.65;71.55;101867.44;5036305;28;45642;-71
2021/10/18 01:19:23;;;;;;;;;25.00;20.00;;;;;9.65;71.76;101863.94;5036596;28;45578;-71
2021/10/18 01:21:54;;;;;;;;;25.25;20.00;;;;;9.64;71.55;101863.09;5037000;28;45415;-71
2021/10/18 01:24:20;;;;;;;;;30.25;21.50;;;;;9.63;71.82;101863.13;5035099;28;46129;-71
2021/10/18 01:26:45;;;;;;;;;22.50;18.50;;;;;9.53;72.02;101857.19;5035585;28;45604;-71
2021/10/18 01:29:10;;;;;;;;;27.25;22.50;;;;;9.58;72.05;101857.09;5036174;28;45636;-71
2021/10/18 01:31:38;;;;;;;;;22.75;21.00;;;;;9.56;72.08;101854.53;5017744;28;45420;-71
2021/10/18 01:34:04;;;;;;;;;28.00;22.75;;;;;9.53;71.91;101858.97;5036284;28;46484;-71
2021/10/18 01:36:30;;;;;;;;;28.75;24.75;;;;;9.52;72.35;101854.63;5035910;28;45569;-71
2021/10/18 01:38:55;;;;;;;;;25.25;22.25;;;;;9.52;72.20;101854.63;5036254;28;45510;-71
2021/10/18 01:41:20;;;;;;;;;27.25;23.75;;;;;9.45;72.03;101846.00;5035982;28;45346;-71
2021/10/18 01:43:45;;;;;;;;;27.67;23.67;;;;;9.50;71.81;101857.28;5035836;28;56473;-71
2021/10/18 01:46:11;;;;;;;;;27.75;22.75;;;;;9.50;72.01;101852.03;5035864;28;45376;-71
2021/10/18 01:48:36;;;;;;;;;33.75;23.00;;;;;9.48;72.17;101851.19;5036349;28;45412;-71
2021/10/18 01:51:02;;;;;;;;;26.75;24.00;;;;;9.46;72.23;101846.88;5035942;28;45380;-71
2021/10/18 01:53:27;;;;;;;;;24.50;20.00;;;;;9.44;72.33;101846.88;5035176;28;45560;-70
2021/10/18 01:55:52;;;;;;;;;24.50;20.50;;;;;9.38;72.34;101844.38;5035705;28;45396;-71
2021/10/18 01:58:18;;;;;;;;;27.75;21.00;;;;;9.43;72.06;101844.31;5035275;28;45512;-71
2021/10/18 02:00:43;;;;;;;;;23.75;21.75;;;;;9.39;72.10;101836.47;5035973;28;45395;-71
2021/10/18 02:03:11;;;;;;;;;23.25;20.00;;;;;9.40;72.66;101840.84;5035608;28;45597;-71
2021/10/18 02:05:37;;;;;;;;;24.25;20.50;;;;;9.39;72.26;101830.38;5035326;28;45903;-71
2021/10/18 02:08:03;;;;;;;;;23.75;22.75;;;;;9.37;72.43;101830.41;5035903;28;45247;-70
2021/10/18 02:10:29;;;;;;;;;24.25;19.25;;;;;9.38;72.20;101828.66;5001801;28;45390;-71
2021/10/18 02:12:54;;;;;;;;;27.25;19.50;;;;;9.31;72.41;101832.31;5036384;28;45396;-71
2021/10/18 02:15:20;;;;;;;;;26.25;21.75;;;;;9.32;72.16;101844.53;5035432;28;45333;-71
2021/10/18 02:17:45;;;;;;;;;22.75;17.25;;;;;9.32;72.31;101839.28;5034844;28;45406;-71
2021/10/18 02:20:12;;;;;;;;;28.50;24.00;;;;;9.26;72.12;101826.28;5034929;28;45380;-71
2021/10/18 02:22:38;;;;;;;;;20.50;18.50;;;;;9.31;72.14;101840.16;5035504;28;45474;-71
2021/10/18 02:25:06;;;;;;;;;28.75;19.75;;;;;9.30;72.32;101841.06;5016239;28;45467;-71
2021/10/18 02:27:31;;;;;;;;;28.50;23.00;;;;;9.28;72.56;101841.09;5035286;28;45420;-71
2021/10/18 02:29:57;;;;;;;;;29.50;22.00;;;;;9.26;72.58;101842.03;5035288;28;45612;-71
2021/10/18 02:32:22;;;;;;;;;21.50;20.00;;;;;9.24;72.56;101842.06;5034748;28;46965;-70
2021/10/18 02:34:48;;;;;;;;;28.50;24.25;;;;;9.19;72.26;101827.28;5014548;28;45766;-71
2021/10/18 02:37:13;;;;;;;;;32.00;24.33;;;;;9.20;72.54;101845.63;5035289;28;45344;-71
2021/10/18 02:39:38;;;;;;;;;27.75;22.25;;;;;9.20;72.46;101835.13;5035127;28;50054;-70
2021/10/18 02:42:04;;;;;;;;;22.25;19.50;;;;;9.17;72.72;101834.31;5017033;28;48071;-71
2021/10/18 02:44:29;;;;;;;;;34.00;26.00;;;;;9.15;72.68;101827.34;5035436;28;45313;-71
2021/10/18 02:46:55;;;;;;;;;24.25;18.75;;;;;9.16;72.79;101815.09;5035024;28;45462;-71
2021/10/18 02:49:23;;;;;;;;;23.75;21.00;;;;;9.14;72.69;101815.16;5034704;28;45467;-71
2021/10/18 02:51:49;;;;;;;;;23.00;20.50;;;;;9.20;72.77;101824.66;5035648;28;46027;-71
2021/10/18 02:54:15;;;;;;;;;23.25;20.00;;;;;9.19;72.61;101817.69;5034343;28;45324;-71
2021/10/18 02:56:40;;;;;;;;;26.00;22.75;;;;;9.20;72.79;101815.91;5034650;28;45771;-71
2021/10/18 02:59:05;;;;;;;;;25.50;22.50;;;;;9.12;72.75;101805.56;5035162;28;45458;-71
2021/10/18 03:01:31;;;;;;;;;24.00;21.67;;;;;9.17;72.76;101808.97;5033828;28;48915;-71
2021/10/18 03:03:56;;;;;;;;;25.75;20.50;;;;;9.14;72.90;101801.19;5048479;28;45451;-71
2021/10/18 03:06:22;;;;;;;;;22.75;21.50;;;;;9.09;72.83;101796.03;5034891;28;45383;-71
2021/10/18 03:08:47;;;;;;;;;21.75;18.25;;;;;9.19;72.90;101806.31;5033656;28;45465;-70
2021/10/18 03:11:13;;;;;;;;;23.50;17.75;;;;;9.19;72.71;101801.94;5032475;28;45512;-71
2021/10/18 03:13:38;;;;;;;;;27.75;24.50;;;;;9.18;73.05;101796.72;5032940;28;45308;-71
2021/10/18 03:16:04;;;;;;;;;24.50;20.75;;;;;9.16;73.09;101796.75;5034481;28;45407;-71
2021/10/18 03:18:29;;;;;;;;;26.00;21.50;;;;;9.12;73.04;101779.34;5029919;28;45493;-71
2021/10/18 03:20:54;;;;;;;;;24.67;18.00;;;;;9.15;73.19;101797.66;5033518;28;52529;-71
2021/10/18 03:23:20;;;;;;;;;17.33;17.00;;;;;9.13;72.69;101796.78;5033488;28;49907;-71
2021/10/18 03:25:45;;;;;;;;;17.50;16.75;;;;;9.13;72.80;101795.06;5034466;28;45883;-70
2021/10/18 03:28:10;;;;;;;;;26.50;22.25;;;;;9.14;73.19;101799.41;5033536;28;45441;-70
2021/10/18 03:30:36;;;;;;;;;25.00;22.75;;;;;9.15;72.80;101802.91;5034086;28;45993;-71
2021/10/18 03:33:01;;;;;;;;;28.25;21.50;;;;;9.14;72.91;101803.78;5033704;28;45446;-70
2021/10/18 03:35:27;;;;;;;;;23.50;20.00;;;;;9.13;72.86;101813.44;5034026;28;45661;-70
2021/10/18 03:37:52;;;;;;;;;22.00;17.25;;;;;9.12;72.93;101813.44;5037449;28;46405;-70
2021/10/18 03:40:18;;;;;;;;;23.50;20.50;;;;;9.10;72.77;101810.84;5033959;28;45920;-71
2021/10/18 03:42:43;;;;;;;;;24.00;19.25;;;;;9.11;72.94;101806.47;5034592;28;45321;-71
2021/10/18 03:45:10;;;;;;;;;24.50;19.50;;;;;9.09;72.68;101809.13;5037420;28;46352;-71
2021/10/18 03:47:36;;;;;;;;;27.50;23.50;;;;;9.03;73.03;101805.75;5040598;28;45481;-71
2021/10/18 03:50:03;;;;;;;;;30.25;23.00;;;;;9.00;73.27;101801.44;5033739;28;45906;-71
2021/10/18 03:52:29;;;;;;;;;19.25;18.00;;;;;9.03;72.96;101817.13;5049418;28;45681;-71
2021/10/18 03:54:54;;;;;;;;;22.75;19.00;;;;;9.02;72.76;101822.38;5033993;28;45497;-71
2021/10/18 03:57:19;;;;;;;;;24.00;19.00;;;;;8.95;73.06;101820.78;5035862;28;45485;-71
2021/10/18 03:59:45;;;;;;;;;17.50;15.75;;;;;8.99;73.06;101820.69;5039851;28;46044;-71
2021/10/18 04:02:10;;;;;;;;;30.00;22.25;;;;;8.92;72.88;101816.44;5033535;28;48102;-71
2021/10/18 04:04:36;;;;;;;;;21.50;19.50;;;;;9.00;73.31;101832.03;5033933;28;45414;-71
2021/10/18 04:07:01;;;;;;;;;31.25;23.00;;;;;8.99;73.03;101833.78;5034152;28;45501;-71
2021/10/18 04:09:27;;;;;;;;;28.50;20.25;;;;;8.98;72.90;101833.81;5035824;28;45981;-71
2021/10/18 04:11:52;;;;;;;;;20.75;17.50;;;;;8.92;73.02;101824.28;5015303;28;45585;-71
2021/10/18 04:14:18;;;;;;;;;21.00;18.00;;;;;8.97;73.13;101840.81;5030753;28;45512;-71
2021/10/18 04:16:43;;;;;;;;;24.00;21.75;;;;;8.89;73.37;101819.13;5032960;28;45369;-71
2021/10/18 04:19:08;;;;;;;;;23.00;19.00;;;;;8.93;73.31;101830.41;5017509;28;46109;-71
2021/10/18 04:21:34;;;;;;;;;22.75;18.00;;;;;8.93;73.09;101836.53;5022138;28;45356;-71
2021/10/18 04:23:59;;;;;;;;;23.00;17.75;;;;;8.93;73.30;101844.41;5034035;28;45489;-71
2021/10/18 04:26:24;;;;;;;;;25.00;19.25;;;;;8.94;73.15;101843.50;5033447;28;45498;-71
2021/10/18 04:28:50;;;;;;;;;26.25;18.50;;;;;8.93;72.98;101839.16;5033762;28;45546;-71
2021/10/18 04:31:15;;;;;;;;;24.25;18.50;;;;;8.92;73.17;101842.66;5033035;28;45320;-71
2021/10/18 04:33:40;;;;;;;;;22.00;20.25;;;;;8.88;73.12;101838.38;5033820;28;45424;-71
2021/10/18 04:36:06;;;;;;;;;21.75;16.50;;;;;8.92;73.20;101852.28;5032341;28;45459;-71
2021/10/18 04:38:31;;;;;;;;;28.00;20.50;;;;;8.92;72.85;101854.91;5033799;28;45381;-71
2021/10/18 04:40:57;;;;;;;;;21.00;17.50;;;;;8.89;72.68;101854.06;5033392;28;45344;-71
2021/10/18 04:43:22;;;;;;;;;25.25;20.75;;;;;8.91;73.16;101853.19;5033215;28;45262;-71
2021/10/18 04:45:48;;;;;;;;;18.75;16.75;;;;;8.91;73.13;101858.41;5040429;28;45461;-71
2021/10/18 04:48:14;;;;;;;;;26.50;23.25;;;;;8.91;73.38;101867.16;5034202;28;47659;-71
2021/10/18 04:50:39;;;;;;;;;25.75;19.00;;;;;8.85;72.98;101860.25;5037099;28;45501;-71
2021/10/18 04:53:04;;;;;;;;;28.00;20.75;;;;;8.87;73.11;101861.13;5018318;28;45525;-71
2021/10/18 04:55:30;;;;;;;;;24.75;20.50;;;;;8.86;72.94;101861.97;5039943;28;45632;-71
2021/10/18 04:57:57;;;;;;;;;26.00;21.75;;;;;8.84;73.38;101858.53;5036555;28;46053;-71
2021/10/18 05:00:25;;;;;;;;;25.00;19.00;;;;;8.85;73.52;101865.50;5036247;28;46161;-71
2021/10/18 05:02:50;;;;;;;;;21.25;16.25;;;;;8.83;73.70;101861.19;5034697;28;45424;-71
2021/10/18 05:05:16;;;;;;;;;30.75;22.50;;;;;8.82;73.17;101873.44;5026163;28;45491;-71
2021/10/18 05:07:41;;;;;;;;;21.50;19.50;;;;;8.83;73.65;101869.06;5035965;28;45465;-71
2021/10/18 05:10:14;;;;;;;;;28.00;23.00;;;;;8.81;73.47;101879.53;5036895;28;45391;-71
2021/10/18 05:12:40;;;;;;;;;26.00;19.50;;;;;8.81;73.37;101883.91;5036305;28;45537;-71
2021/10/18 05:15:07;;;;;;;;;21.00;19.00;;;;;8.79;73.32;101885.72;5036243;28;45405;-71
2021/10/18 05:17:33;;;;;;;;;24.25;21.00;;;;;8.79;73.32;101888.34;5037237;28;45984;-71
2021/10/18 05:19:59;;;;;;;;;22.00;18.25;;;;;8.78;73.49;101891.84;5046659;28;45498;-71
2021/10/18 05:22:24;;;;;;;;;23.25;20.75;;;;;8.78;73.33;101889.22;5036363;28;45823;-71
2021/10/18 05:24:49;;;;;;;;;27.00;22.00;;;;;8.74;73.77;101880.56;5036866;28;45355;-71
2021/10/18 05:27:15;;;;;;;;;18.50;16.75;;;;;8.76;73.79;101885.75;5037377;28;45524;-71
2021/10/18 05:29:40;;;;;;;;;22.25;18.50;;;;;8.76;73.31;101891.00;5035710;28;45664;-71
2021/10/18 05:32:06;;;;;;;;;16.00;14.50;;;;;8.76;73.82;101888.38;5035156;28;45431;-71
2021/10/18 05:34:31;;;;;;;;;25.75;19.00;;;;;8.75;73.62;101882.28;5036659;28;45353;-71
2021/10/18 05:36:57;;;;;;;;;28.25;22.00;;;;;8.69;73.81;101871.91;5036562;28;45514;-71
2021/10/18 05:39:22;;;;;;;;;31.25;26.25;;;;;8.72;74.32;101878.84;5035970;28;45589;-72
2021/10/18 05:41:47;;;;;;;;;28.25;23.00;;;;;8.79;74.01;101890.97;5035389;28;45419;-74
2021/10/18 05:44:13;;;;;;;;;34.00;27.67;;;;;8.75;74.21;101889.28;5036434;28;45426;-71
2021/10/18 05:46:38;;;;;;;;;26.25;21.50;;;;;8.81;74.40;101889.16;5017810;28;47393;-71
2021/10/18 05:49:04;;;;;;;;;33.00;30.50;;;;;8.81;73.91;101889.16;5033768;28;45845;-71
2021/10/18 05:51:30;;;;;;;;;28.75;27.00;;;;;8.81;73.83;101886.53;5050075;28;45437;-71
2021/10/18 05:53:56;;;;;;;;;43.75;32.75;;;;;8.76;73.81;101876.13;5036783;28;45519;-71
2021/10/18 05:56:22;;;;;;;;;42.75;36.25;;;;;8.80;73.92;101887.44;5034119;28;45487;-71
2021/10/18 05:58:47;;;;;;;;;41.25;35.50;;;;;8.79;73.91;101888.34;5036595;28;45525;-71
2021/10/18 06:01:13;;;;;;;;;45.00;38.25;;;;;8.81;74.44;101882.16;5052686;28;45399;-72
2021/10/18 06:03:40;;;;;;;;;37.25;32.75;;;;;8.81;74.32;101887.41;5034490;28;45624;-72
2021/10/18 06:06:07;;;;;;;;;47.75;38.50;;;;;8.82;74.32;101880.41;5039294;28;46103;-71
2021/10/18 06:08:33;;;;;;;;;51.50;40.00;;;;;8.82;74.19;101888.25;5038876;28;45580;-71
2021/10/18 06:10:59;;;;;;;;;55.25;42.25;;;;;8.77;74.39;101888.38;5038945;28;45502;-71
2021/10/18 06:13:24;;;;;;;;;52.00;39.25;;;;;8.76;74.24;101881.38;5035045;28;45328;-71
2021/10/18 06:15:49;;;;;;;;;50.25;39.75;;;;;8.87;74.32;101899.53;5040246;28;45398;-72
2021/10/18 06:18:18;;;;;;;;;47.75;37.00;;;;;8.83;74.33;101887.41;5037990;28;45425;-71
2021/10/18 06:20:46;;;;;;;;;44.75;32.75;;;;;8.92;74.26;101908.19;5039077;28;45756;-71
2021/10/18 06:23:13;;;;;;;;;53.50;39.50;;;;;8.95;74.46;101902.91;5036342;28;45427;-71
2021/10/18 06:25:38;;;;;;;;;57.25;42.00;;;;;9.00;74.55;101906.31;5050283;28;45486;-72
2021/10/18 06:28:04;;;;;;;;;57.25;44.50;;;;;9.00;75.02;101902.81;5038399;28;45297;-71
2021/10/18 06:30:29;;;;;;;;;61.00;45.50;;;;;9.11;74.91;101913.97;5038688;28;45441;-71
2021/10/18 06:32:55;;;;;;;;;41.50;33.25;;;;;9.12;75.00;101911.31;5034208;28;45345;-71
2021/10/18 06:35:21;;;;;;;;;48.75;35.00;;;;;9.19;74.86;101900.72;5034870;28;45914;-71
2021/10/18 06:37:47;;;;;;;;;43.50;31.50;;;;;9.31;75.18;101918.88;5035148;28;46137;-71
2021/10/18 06:40:12;;;;;;;;;34.75;29.00;;;;;9.38;74.93;101917.84;5034983;28;45327;-71
2021/10/18 06:42:38;;;;;;;;;33.50;31.75;;;;;9.45;74.74;101915.97;5035205;28;45530;-71
2021/10/18 06:45:04;;;;;;;;;34.00;28.25;;;;;9.54;74.95;101913.16;5036090;28;45342;-71
2021/10/18 06:47:30;;;;;;;;;28.25;24.00;;;;;9.64;74.77;101909.47;5034084;28;46087;-72
2021/10/18 06:49:57;;;;;;;;;34.00;28.50;;;;;9.69;74.63;101902.38;5033761;28;45507;-72
2021/10/18 06:52:23;;;;;;;;;32.25;24.00;;;;;9.83;74.79;101910.81;5035603;28;45501;-71
2021/10/18 06:54:49;;;;;;;;;32.50;26.00;;;;;9.91;74.92;101908.03;5032841;28;45502;-71
2021/10/18 06:57:14;;;;;;;;;28.25;24.00;;;;;10.10;74.36;101919.00;5032238;28;45710;-71
2021/10/18 06:59:39;;;;;;;;;29.67;24.33;;;;;10.12;74.17;101910.19;5034212;28;45384;-71
2021/10/18 07:02:05;;;;;;;;;34.00;31.75;;;;;10.26;73.89;101911.69;5033999;28;45434;-71
2021/10/18 07:04:31;;;;;;;;;33.00;27.00;;;;;10.45;74.03;101931.38;5037592;28;45351;-71
2021/10/18 07:06:57;;;;;;;;;34.75;31.25;;;;;10.57;73.96;101915.31;5035395;28;45497;-71
2021/10/18 07:09:24;;;;;;;;;27.25;22.50;;;;;10.75;73.45;101918.38;5032827;28;45423;-71
2021/10/18 07:11:50;;;;;;;;;27.75;24.00;;;;;10.96;73.45;101913.47;5033126;28;45253;-71
2021/10/18 07:14:15;;;;;;;;;31.25;27.50;;;;;11.35;73.04;101917.72;5034531;28;45907;-71
2021/10/18 07:16:40;;;;;;;;;31.00;22.50;;;;;11.95;72.68;101919.50;5033151;28;45525;-71
2021/10/18 07:19:06;;;;;;;;;33.00;29.33;;;;;12.48;71.17;101924.94;5033395;28;45428;-71
2021/10/18 07:21:31;;;;;;;;;42.33;34.00;;;;;13.22;70.67;101931.28;5033884;28;49093;-71
2021/10/18 07:24:02;;;;;;;;;27.25;23.75;;;;;13.89;68.19;101934.13;5033989;28;45429;-71
2021/10/18 07:26:27;;;;;;;;;29.00;25.75;;;;;14.30;66.99;101940.47;5034059;28;45593;-71
2021/10/18 07:28:55;;;;;;;;;30.75;23.50;;;;;14.75;66.63;101918.38;5033143;28;45587;-71
2021/10/18 07:31:20;;;;;;;;;31.25;27.25;;;;;15.23;65.55;101911.94;5034221;28;45295;-72
2021/10/18 07:33:45;;;;;;;;;32.00;26.75;;;;;15.66;64.46;101920.66;5033298;28;49116;-71
2021/10/18 07:36:14;;;;;;;;;28.50;24.00;;;;;16.12;63.75;101906.13;5042014;28;45801;-72
2021/10/18 07:38:39;;;;;;;;;28.50;26.50;;;;;17.12;63.22;101918.03;5039391;28;46511;-72
2021/10/18 07:41:06;;;;;;;;;31.75;25.25;;;;;18.25;61.62;101921.69;5012984;28;45682;-72
2021/10/18 07:43:32;;;;;;;;;31.75;28.00;;;;;19.51;59.10;101920.50;5035109;28;45273;-71
2021/10/18 07:45:58;;;;;;;;;30.25;26.00;;;;;20.49;56.81;101925.84;5028796;28;45820;-71
2021/10/18 07:48:23;;;;;;;;;29.75;22.75;;;;;21.01;55.24;101917.00;5032802;28;45569;-72
2021/10/18 07:50:48;;;;;;;;;22.75;21.00;;;;;21.80;54.13;101918.63;5033561;28;45499;-71
2021/10/18 07:53:14;;;;;;;;;23.25;21.25;;;;;22.77;53.25;101879.41;5033819;28;46455;-72
2021/10/18 07:55:39;;;;;;;;;29.50;27.75;;;;;23.92;50.61;101911.53;5032970;28;45375;-71
2021/10/18 07:58:04;;;;;;;;;26.75;24.50;;;;;24.67;47.96;101903.53;5033797;28;45716;-71
2021/10/18 08:00:30;;;;;;;;;27.75;25.25;;;;;25.40;47.67;101891.00;5034138;28;45422;-72
2021/10/18 08:02:56;;;;;;;;;27.50;24.25;;;;;25.45;46.58;101898.66;5033141;28;45556;-72
2021/10/18 08:05:23;;;;;;;;;28.00;22.00;;;;;24.70;46.10;101899.75;5033161;28;45395;-72
2021/10/18 08:07:50;;;;;;;;;29.75;22.75;;;;;23.72;46.48;101904.22;5032852;28;45470;-72
2021/10/18 08:10:23;;;;;;;;;24.75;19.00;;;;;23.05;46.65;101913.88;5033500;28;45266;-72
2021/10/18 08:12:50;;;;;;;;;27.25;23.00;;;;;22.33;47.16;101924.63;5032618;28;45953;-72
2021/10/18 08:15:16;;;;;;;;;27.00;22.75;;;;;21.80;47.86;101936.50;5032187;28;45992;-72
2021/10/18 08:17:41;;;;;;;;;30.00;26.50;;;;;21.38;48.47;101940.41;5036021;28;45507;-72
2021/10/18 08:20:07;;;;;;;;;22.75;21.50;;;;;21.62;49.50;101938.69;5041529;28;45258;-72
2021/10/18 08:22:33;;;;;;;;;23.25;21.75;;;;;22.63;49.49;101920.63;5033473;28;45919;-72
2021/10/18 08:24:58;;;;;;;;;23.50;21.50;;;;;24.08;47.56;101927.25;5040368;28;45541;-72
2021/10/18 08:27:23;;;;;;;;;33.00;26.00;;;;;24.84;44.82;101923.59;5036505;28;45394;-72
2021/10/18 08:29:49;;;;;;;;;21.25;19.50;;;;;24.91;44.58;101942.78;5036972;28;45621;-72
2021/10/18 08:32:14;;;;;;;;;22.50;19.25;;;;;24.51;44.36;101919.22;5036118;28;45392;-72
2021/10/18 08:34:39;;;;;;;;;23.00;19.75;;;;;24.23;44.53;101925.16;5036155;28;45407;-71
2021/10/18 08:37:05;;;;;;;;;26.50;22.25;;;;;23.89;44.63;101941.28;5036954;28;45241;-72
2021/10/18 08:42:17;;;;;;;;;20.00;18.75;;;;;24.20;44.92;101945.91;5036114;28;45675;-72
2021/10/18 08:44:42;;;;;;;;;21.75;20.50;;;;;25.08;44.87;101944.06;5036296;28;45494;-72
2021/10/18 08:47:08;;;;;;;;;19.00;18.50;;;;;26.28;43.34;101938.81;5036438;28;45577;-72
2021/10/18 08:49:33;;;;;;;;;24.75;19.50;;;;;27.37;41.77;101936.84;5035650;28;45526;-72
2021/10/18 08:51:59;;;;;;;;;25.50;23.25;;;;;28.09;40.45;101938.00;5036942;28;45355;-72
2021/10/18 08:54:24;;;;;;;;;22.50;21.50;;;;;28.34;40.08;101929.16;5036228;28;45502;-72
2021/10/18 08:56:50;;;;;;;;;23.75;21.50;;;;;28.26;39.70;101926.34;5035619;28;45714;-72
2021/10/18 08:59:19;;;;;;;;;20.75;18.00;;;;;27.50;38.82;101923.00;5036188;28;45414;-72
2021/10/18 09:01:51;;;;;;;;;24.50;23.25;;;;;26.42;40.38;101923.28;5035828;28;45435;-72
2021/10/18 09:04:16;;;;;;;;;23.25;21.00;;;;;25.67;40.44;101932.63;5036265;28;45660;-72
2021/10/18 09:06:48;;;;;;;;;19.33;18.67;;;;;24.87;41.23;101922.50;5018270;28;45424;-72
2021/10/18 09:09:14;;;;;;;;;27.50;21.75;;;;;24.34;42.67;101917.91;5035797;28;45525;-72
2021/10/18 09:11:40;;;;;;;;;23.00;19.50;;;;;24.12;42.46;101912.59;5035251;28;45315;-72
2021/10/18 09:14:05;;;;;;;;;31.00;27.25;;;;;24.02;42.61;101908.97;5035511;28;45776;-72
2021/10/18 09:16:33;;;;;;;;;24.50;22.00;;;;;24.20;43.40;101916.34;5035925;28;45525;-71
2021/10/18 09:19:22;;;;;;;;;27.50;20.00;;;;;24.34;43.06;101922.44;5033030;28;45551;-72
2021/10/18 09:21:56;;;;;;;;;22.75;20.50;;;;;24.17;43.13;101899.63;5035743;28;47548;-71
2021/10/18 09:24:30;;;;;;;;;22.75;22.00;;;;;24.25;42.84;101909.75;5034738;28;45547;-72
2021/10/18 09:27:01;;;;;;;;;24.50;21.00;;;;;23.83;43.05;101898.84;5035722;28;45706;-72
2021/10/18 09:29:44;;;;;;;;;23.25;19.00;;;;;23.42;43.73;101902.97;5035247;28;45356;-72
2021/10/18 09:32:39;;;;;;;;;27.25;22.75;;;;;23.02;44.48;101898.03;5035084;28;46103;-72
2021/10/18 09:35:12;;;;;;;;;31.25;21.75;;;;;22.80;44.89;101901.44;5007150;28;45700;-72
2021/10/18 09:37:42;;;;;;;;;25.00;21.25;;;;;22.55;45.57;101893.56;5021102;28;45624;-72
2021/10/18 09:40:09;;;;;;;;;28.00;24.00;;;;;22.21;45.99;101892.56;5035826;28;45543;-71
2021/10/18 09:42:34;;;;;;;;;30.00;27.00;;;;;21.81;45.81;101898.09;5035207;28;45729;-72
2021/10/18 10:52:44;;;;;;;;;22.75;20.75;;;;;20.41;52.88;101920.13;5032851;28;45446;-72
2021/10/18 10:55:21;;;;;;;;;23.25;19.25;;;;;20.62;53.81;101917.00;5034065;28;45371;-72
2021/10/18 10:57:48;;;;;;;;;20.75;17.50;;;;;21.12;52.84;101910.94;5035332;28;45895;-72
2021/10/18 11:00:48;;;;;;;;;23.25;18.75;;;;;21.53;52.15;101908.09;5033720;28;45469;-72
2021/10/18 11:03:41;;;;;;;;;21.50;18.00;;;;;21.83;52.15;101906.88;4992015;28;46856;-73
2021/10/18 11:06:07;;;;;;;;;20.25;16.00;;;;;22.12;51.78;101910.97;4992535;28;45877;-73
2021/10/18 11:08:36;;;;;;;;;25.00;19.25;;;;;22.22;50.92;101897.78;4991771;28;45372;-72
2021/10/18 11:11:21;;;;;;;;;20.25;17.00;;;;;22.14;51.19;101887.66;4990172;28;45439;-72
2021/10/18 11:13:56;;;;;;;;;21.75;19.75;;;;;22.22;50.90;101900.47;4979071;28;46034;-72
2021/10/18 11:16:26;;;;;;;;;21.25;21.25;;;;;21.84;50.99;101879.13;4991525;28;45620;-71
2021/10/18 11:18:54;;;;;;;;;18.00;17.25;;;;;21.53;51.25;101886.69;4992587;28;45417;-72
2021/10/18 11:21:27;;;;;;;;;25.75;20.50;;;;;21.43;52.31;101877.59;4992016;28;46012;-72
2021/10/18 11:24:04;;;;;;;;;20.25;17.50;;;;;21.36;51.92;101868.31;4987756;28;45606;-72
2021/10/18 11:26:36;;;;;;;;;22.25;17.50;;;;;21.21;52.04;101861.31;4990975;28;45409;-72
2021/10/18 11:29:06;;;;;;;;;20.50;16.25;;;;;21.17;52.46;101876.72;4989657;28;45614;-72
2021/10/18 11:31:41;;;;;;;;;19.00;18.00;;;;;21.25;52.66;101878.88;4990804;28;46092;-72
2021/10/18 11:34:16;;;;;;;;;17.75;16.00;;;;;21.23;52.75;101873.59;4988928;28;45777;-72
2021/10/18 11:36:50;;;;;;;;;19.75;18.00;;;;;21.41;52.93;101881.38;5004181;28;45384;-72
2021/10/18 11:39:21;;;;;;;;;21.75;17.25;;;;;21.49;53.07;101868.28;5013872;28;45439;-72
2021/10/18 11:42:16;;;;;;;;;17.00;17.00;;;;;21.55;52.79;101873.19;5033465;28;47224;-72
2021/10/18 11:44:49;;;;;;;;;24.50;20.75;;;;;21.39;52.55;101883.28;5012175;28;45765;-72
2021/10/18 11:47:49;;;;;;;;;22.25;17.25;;;;;21.32;52.99;101875.69;5033761;28;45402;-72
2021/10/18 11:50:22;;;;;;;;;19.75;19.50;;;;;21.25;53.57;101866.34;4973647;28;45500;-72
2021/10/18 11:52:49;;;;;;;;;17.75;16.50;;;;;21.16;53.60;101863.47;4969843;28;46373;-72
2021/10/18 11:55:18;;;;;;;;;19.75;17.00;;;;;21.07;54.17;101871.16;4967853;28;45372;-72
2021/10/18 11:57:45;;;;;;;;;17.75;16.00;;;;;20.95;53.99;101860.47;4969311;28;45520;-72
2021/10/18 12:00:30;;;;;;;;;20.75;18.00;;;;;20.90;54.91;101834.06;4969920;28;45356;-72
2021/10/18 12:03:01;;;;;;;;;20.75;18.75;;;;;20.95;54.55;101839.94;4967373;28;45886;-72
2021/10/18 12:05:54;;;;;;;;;19.25;18.00;;;;;20.92;54.70;101832.13;4967529;28;45505;-72
2021/10/18 12:08:22;;;;;;;;;17.25;17.25;;;;;20.95;55.38;101826.56;4966690;28;45592;-72
2021/10/18 12:10:49;;;;;;;;;19.00;17.75;;;;;21.02;55.23;101821.66;4970165;28;45672;-72
2021/10/18 12:13:30;;;;;;;;;15.00;13.25;;;;;21.08;54.78;101827.41;4969164;28;45496;-72
2021/10/18 12:16:25;;;;;;;;;16.50;15.00;;;;;21.20;55.41;101819.53;4972296;28;45418;-72
2021/10/18 12:18:52;;;;;;;;;21.25;17.75;;;;;21.47;54.84;101822.09;4971710;28;45425;-72
2021/10/18 12:21:26;;;;;;;;;18.25;14.00;;;;;21.62;54.66;101810.28;4967014;28;47588;-72
2021/10/18 12:24:00;;;;;;;;;16.75;16.00;;;;;21.82;54.24;101800.78;4988451;28;46102;-72
2021/10/18 12:26:26;;;;;;;;;18.75;15.75;;;;;21.89;54.26;101810.09;5032713;28;45600;-72